createdAt,value
2017-09-29T00:00:33.062Z,15.17
2017-09-29T00:03:00.579Z,16.07
2017-09-29T00:05:28.106Z,16.97
2017-09-29T00:07:55.610Z,17.87
2017-09-29T00:10:23.508Z,16.83
2017-09-29T00:12:51.018Z,17.37
2017-09-29T00:15:18.527Z,19.00
2017-09-29T00:17:46.053Z,17.60
2017-09-29T00:20:13.963Z,17.50
2017-09-29T00:22:41.466Z,18.43
2017-09-29T00:25:09.786Z,17.77
2017-09-29T00:27:37.289Z,19.23
2017-09-29T00:30:04.771Z,16.60
2017-09-29T00:32:33.541Z,16.73
2017-09-29T00:35:01.418Z,16.97
2017-09-29T00:37:29.317Z,17.70
2017-09-29T00:39:56.814Z,16.60
2017-09-29T00:42:24.306Z,17.00
2017-09-29T00:44:52.182Z,16.80
2017-09-29T00:47:19.682Z,18.30
2017-09-29T00:49:48.134Z,16.67
2017-09-29T00:52:15.637Z,18.30
2017-09-29T00:54:43.117Z,16.30
2017-09-29T00:57:11.033Z,18.17
2017-09-29T00:59:38.518Z,16.90
2017-09-29T01:02:06.022Z,18.57
2017-09-29T01:04:33.530Z,17.87
2017-09-29T01:07:01.037Z,15.50
2017-09-29T01:09:28.546Z,18.73
2017-09-29T01:11:56.030Z,17.97
2017-09-29T01:14:23.918Z,18.10
2017-09-29T01:16:51.425Z,18.50
2017-09-29T01:19:18.905Z,18.00
2017-09-29T01:21:46.822Z,17.03
2017-09-29T01:24:14.302Z,20.57
2017-09-29T01:26:43.765Z,18.63
2017-09-29T01:29:11.254Z,19.47
2017-09-29T01:31:38.769Z,19.93
2017-09-29T01:34:07.216Z,18.07
2017-09-29T01:36:34.698Z,17.43
2017-09-29T01:39:04.559Z,19.23
2017-09-29T01:41:32.047Z,19.30
2017-09-29T01:44:00.546Z,19.47
2017-09-29T01:46:28.486Z,19.83
2017-09-29T01:48:55.976Z,19.93
2017-09-29T01:51:23.482Z,20.50
2017-09-29T01:53:50.968Z,19.10
2017-09-29T01:56:18.476Z,21.47
2017-09-29T01:58:45.962Z,19.40
2017-09-29T02:01:13.470Z,19.50
2017-09-29T02:03:40.954Z,20.57
2017-09-29T02:06:10.410Z,20.40
2017-09-29T02:08:38.294Z,19.97
2017-09-29T02:11:05.811Z,19.50
2017-09-29T02:13:33.571Z,20.87
2017-09-29T02:16:01.098Z,19.27
2017-09-29T02:18:29.541Z,18.33
2017-09-29T02:20:59.398Z,18.70
2017-09-29T02:23:26.893Z,19.30
2017-09-29T02:25:54.372Z,19.53
2017-09-29T02:28:22.262Z,22.60
2017-09-29T02:30:49.767Z,19.33
2017-09-29T02:33:17.249Z,18.97
2017-09-29T02:35:47.086Z,21.23
2017-09-29T02:38:14.581Z,20.80
2017-09-29T02:40:42.092Z,17.83
2017-09-29T02:43:09.579Z,17.80
2017-09-29T02:45:37.082Z,19.70
2017-09-29T02:48:04.970Z,19.27
2017-09-29T02:50:32.471Z,19.93
2017-09-29T02:52:59.960Z,17.60
2017-09-29T02:55:27.876Z,17.63
2017-09-29T02:58:01.094Z,19.27
2017-09-29T03:00:29.954Z,19.93
2017-09-29T03:03:02.281Z,20.17
2017-09-29T03:05:36.257Z,20.40
2017-09-29T03:08:03.769Z,19.50
2017-09-29T03:10:31.266Z,21.77
2017-09-29T03:12:58.764Z,23.33
2017-09-29T03:15:26.281Z,19.97
2017-09-29T03:17:53.774Z,17.60
2017-09-29T03:20:21.294Z,18.50
2017-09-29T03:22:48.781Z,18.13
2017-09-29T03:25:16.284Z,17.60
2017-09-29T03:27:43.806Z,18.13
2017-09-29T03:30:11.725Z,19.70
2017-09-29T03:32:40.420Z,19.93
2017-09-29T03:35:07.922Z,21.30
2017-09-29T03:37:35.438Z,20.10
2017-09-29T03:40:02.944Z,22.13
2017-09-29T03:42:30.429Z,21.17
2017-09-29T03:44:57.938Z,22.40
2017-09-29T03:47:25.841Z,23.17
2017-09-29T03:49:55.234Z,22.67
2017-09-29T03:52:27.219Z,23.40
2017-09-29T03:54:57.458Z,21.73
2017-09-29T03:57:32.274Z,23.97
2017-09-29T03:59:59.775Z,22.73
2017-09-29T04:02:27.692Z,23.87
2017-09-29T04:04:55.206Z,22.60
2017-09-29T04:07:24.601Z,23.37
2017-09-29T04:09:52.103Z,22.17
2017-09-29T04:12:21.106Z,22.77
2017-09-29T04:14:48.609Z,23.53
2017-09-29T04:17:16.097Z,21.53
2017-09-29T04:19:43.602Z,22.07
2017-09-29T04:22:11.078Z,21.87
2017-09-29T04:24:38.594Z,23.80
2017-09-29T04:27:06.081Z,23.60
2017-09-29T04:29:34.506Z,21.50
2017-09-29T04:32:01.997Z,21.20
2017-09-29T04:34:29.494Z,23.30
2017-09-29T04:36:57.401Z,22.30
2017-09-29T04:39:25.889Z,24.60
2017-09-29T04:41:53.374Z,23.80
2017-09-29T04:44:20.878Z,24.90
2017-09-29T04:46:49.983Z,25.00
2017-09-29T04:49:17.865Z,23.43
2017-09-29T04:51:45.362Z,22.83
2017-09-29T04:54:12.865Z,21.77
2017-09-29T04:56:40.388Z,22.40
2017-09-29T04:59:08.286Z,20.43
2017-09-29T05:01:35.771Z,25.07
2017-09-29T05:04:03.265Z,23.00
2017-09-29T05:06:31.148Z,26.43
2017-09-29T05:08:59.060Z,28.97
2017-09-29T05:11:26.575Z,28.23
2017-09-29T05:13:54.459Z,25.73
2017-09-29T05:16:21.960Z,27.00
2017-09-29T05:18:49.467Z,26.10
2017-09-29T05:21:16.962Z,25.50
2017-09-29T05:23:44.470Z,25.33
2017-09-29T05:26:14.313Z,24.77
2017-09-29T05:28:41.806Z,24.80
2017-09-29T05:31:09.284Z,25.83
2017-09-29T05:33:38.295Z,27.10
2017-09-29T05:36:07.094Z,28.17
2017-09-29T05:38:34.602Z,26.50
2017-09-29T05:41:02.102Z,27.83
2017-09-29T05:43:30.552Z,25.00
2017-09-29T05:45:58.050Z,27.57
2017-09-29T05:48:25.611Z,23.90
2017-09-29T05:50:53.089Z,27.57
2017-09-29T05:53:20.566Z,25.80
2017-09-29T05:55:48.082Z,24.27
2017-09-29T05:58:15.558Z,24.47
2017-09-29T06:00:43.059Z,22.53
2017-09-29T06:03:11.911Z,22.13
2017-09-29T06:05:39.423Z,22.30
2017-09-29T06:08:07.311Z,21.67
2017-09-29T06:10:34.813Z,32.80
2017-09-29T06:13:02.301Z,62.80
2017-09-29T06:15:30.187Z,52.20
2017-09-29T06:17:57.695Z,45.57
2017-09-29T06:20:25.194Z,31.63
2017-09-29T06:22:52.713Z,30.70
2017-09-29T06:25:22.174Z,26.00
2017-09-29T06:27:49.694Z,26.23
2017-09-29T06:30:17.592Z,25.53
2017-09-29T06:32:45.069Z,27.80
2017-09-29T06:35:12.579Z,25.23
2017-09-29T06:37:40.454Z,24.27
2017-09-29T06:40:07.961Z,23.73
2017-09-29T06:42:36.172Z,22.80
2017-09-29T06:45:04.067Z,22.80
2017-09-29T06:47:31.586Z,22.70
2017-09-29T06:49:59.086Z,24.93
2017-09-29T06:52:26.590Z,24.07
2017-09-29T06:54:54.085Z,22.30
2017-09-29T06:57:21.625Z,25.47
2017-09-29T06:59:49.498Z,26.30
2017-09-29T07:02:17.002Z,23.77
2017-09-29T07:04:45.398Z,24.20
2017-09-29T07:07:12.881Z,24.50
2017-09-29T07:09:41.499Z,24.60
2017-09-29T07:12:10.955Z,26.03
2017-09-29T07:14:38.990Z,28.83
2017-09-29T07:17:07.420Z,30.23
2017-09-29T07:19:35.322Z,29.30
2017-09-29T07:22:02.805Z,30.83
2017-09-29T07:24:36.501Z,28.87
2017-09-29T07:27:08.743Z,30.77
2017-09-29T07:29:39.247Z,31.80
2017-09-29T07:32:09.507Z,30.47
2017-09-29T07:34:37.010Z,32.17
2017-09-29T07:37:04.499Z,33.10
2017-09-29T07:39:33.153Z,31.20
2017-09-29T07:42:01.050Z,32.77
2017-09-29T07:44:28.594Z,31.53
2017-09-29T07:46:56.474Z,32.73
2017-09-29T07:49:23.981Z,31.50
2017-09-29T07:51:51.481Z,30.30
2017-09-29T07:54:25.785Z,29.47
2017-09-29T07:56:53.727Z,31.43
2017-09-29T07:59:21.213Z,31.87
2017-09-29T08:01:49.103Z,31.40
2017-09-29T08:04:16.606Z,30.87
2017-09-29T08:06:44.166Z,32.67
2017-09-29T08:09:11.674Z,31.93
2017-09-29T08:11:39.167Z,31.40
2017-09-29T08:14:06.671Z,31.60
2017-09-29T08:16:34.542Z,31.47
2017-09-29T08:19:03.003Z,33.53
2017-09-29T08:21:31.832Z,29.30
2017-09-29T08:23:59.335Z,30.13
2017-09-29T08:26:26.844Z,29.83
2017-09-29T08:28:54.342Z,29.43
2017-09-29T08:31:22.741Z,30.40
2017-09-29T08:33:50.642Z,29.93
2017-09-29T08:36:18.154Z,29.93
2017-09-29T08:38:45.658Z,28.93
2017-09-29T08:41:13.143Z,30.10
2017-09-29T08:43:40.652Z,28.73
2017-09-29T08:46:08.530Z,27.20
2017-09-29T08:48:37.061Z,27.40
2017-09-29T08:51:04.554Z,28.13
2017-09-29T08:53:32.466Z,28.77
2017-09-29T08:55:59.942Z,27.10
2017-09-29T08:58:28.379Z,27.50
2017-09-29T09:00:55.875Z,28.73
2017-09-29T09:03:23.370Z,29.10
2017-09-29T09:05:51.242Z,30.60
2017-09-29T09:08:19.129Z,28.27
2017-09-29T09:10:46.651Z,28.07
2017-09-29T09:13:14.550Z,28.67
2017-09-29T09:15:42.060Z,28.03
2017-09-29T09:18:09.558Z,28.47
2017-09-29T09:20:37.040Z,28.37
2017-09-29T09:23:04.550Z,28.80
2017-09-29T09:25:32.443Z,30.67
2017-09-29T09:28:00.869Z,26.47
2017-09-29T09:30:28.386Z,25.10
2017-09-29T09:32:55.894Z,24.10
2017-09-29T09:35:24.290Z,24.80
2017-09-29T09:37:52.166Z,24.50
2017-09-29T09:40:20.062Z,25.40
2017-09-29T09:42:48.486Z,23.07
2017-09-29T09:45:16.005Z,27.67
2017-09-29T09:47:43.483Z,26.50
2017-09-29T09:50:10.978Z,26.07
2017-09-29T09:52:38.859Z,22.67
2017-09-29T09:55:06.371Z,25.60
2017-09-29T09:57:34.827Z,25.77
2017-09-29T10:00:04.331Z,22.67
2017-09-29T10:02:31.914Z,22.47
2017-09-29T10:04:59.446Z,24.43
2017-09-29T10:07:26.939Z,25.07
2017-09-29T10:09:54.554Z,23.83
2017-09-29T10:12:22.054Z,23.87
2017-09-29T10:14:52.462Z,25.43
2017-09-29T10:17:19.947Z,22.77
2017-09-29T10:19:47.855Z,19.30
2017-09-29T10:22:15.352Z,20.77
2017-09-29T10:24:42.878Z,17.60
2017-09-29T10:27:10.403Z,18.40
2017-09-29T10:29:38.287Z,18.83
2017-09-29T10:32:07.782Z,19.87
2017-09-29T10:34:35.275Z,18.20
2017-09-29T10:37:02.790Z,19.37
2017-09-29T10:39:30.701Z,15.83
2017-09-29T10:42:00.179Z,15.33
2017-09-29T10:44:27.699Z,15.27
2017-09-29T10:46:55.178Z,14.53
2017-09-29T10:49:23.098Z,15.20
2017-09-29T10:51:51.518Z,15.13
2017-09-29T10:54:19.439Z,15.30
2017-09-29T10:56:46.942Z,16.83
2017-09-29T10:59:15.781Z,15.07
2017-09-29T11:01:45.250Z,14.07
2017-09-29T11:04:12.735Z,13.70
2017-09-29T11:06:40.230Z,13.20
2017-09-29T11:09:07.736Z,12.50
2017-09-29T11:11:35.233Z,13.50
2017-09-29T11:14:02.725Z,12.73
2017-09-29T11:16:30.623Z,12.73
2017-09-29T11:18:58.158Z,12.37
2017-09-29T11:21:25.676Z,10.27
2017-09-29T11:23:55.130Z,10.90
2017-09-29T11:26:22.637Z,11.70
2017-09-29T11:28:50.163Z,11.30
2017-09-29T11:31:17.645Z,10.27
2017-09-29T11:33:46.106Z,10.10
2017-09-29T11:36:13.603Z,10.03
2017-09-29T11:38:41.917Z,10.17
2017-09-29T11:41:09.417Z,9.40
2017-09-29T11:43:36.906Z,8.60
2017-09-29T11:46:04.825Z,9.47
2017-09-29T11:48:32.307Z,9.20
2017-09-29T11:50:59.821Z,8.70
2017-09-29T11:53:27.362Z,7.60
2017-09-29T11:55:54.870Z,7.80
2017-09-29T11:58:22.358Z,9.60
2017-09-29T12:00:50.256Z,8.87
2017-09-29T12:03:19.726Z,8.40
2017-09-29T12:05:47.594Z,8.20
2017-09-29T12:08:15.493Z,9.53
2017-09-29T12:10:42.979Z,8.07
2017-09-29T12:13:10.484Z,7.63
2017-09-29T12:15:38.358Z,7.10
2017-09-29T12:18:06.843Z,7.13
2017-09-29T12:20:34.362Z,6.50
2017-09-29T12:23:02.786Z,7.17
2017-09-29T12:25:30.298Z,6.20
2017-09-29T12:27:57.773Z,5.53
2017-09-29T12:30:25.683Z,6.00
2017-09-29T12:32:54.106Z,7.13
2017-09-29T12:35:21.611Z,5.73
2017-09-29T12:37:49.102Z,7.50
2017-09-29T12:40:16.602Z,6.57
2017-09-29T12:42:44.091Z,6.73
2017-09-29T12:47:38.657Z,7.37
2017-09-29T12:50:08.499Z,8.47
2017-09-29T12:52:35.985Z,7.20
2017-09-29T12:55:03.476Z,7.70
2017-09-29T12:57:31.372Z,7.87
2017-09-29T13:00:00.846Z,7.63
2017-09-29T13:02:29.683Z,6.57
2017-09-29T13:04:57.204Z,7.40
2017-09-29T13:07:25.099Z,6.43
2017-09-29T13:09:52.597Z,6.90
2017-09-29T13:12:20.086Z,8.17
2017-09-29T13:14:48.571Z,6.37
2017-09-29T13:17:18.010Z,7.10
2017-09-29T13:19:45.750Z,7.33
2017-09-29T13:22:14.126Z,7.00
2017-09-29T13:24:41.678Z,7.53
2017-09-29T13:27:09.364Z,7.27
2017-09-29T13:29:37.245Z,6.50
2017-09-29T13:32:04.861Z,6.83
2017-09-29T13:34:33.588Z,6.60
2017-09-29T13:37:01.118Z,6.60
2017-09-29T13:39:28.663Z,6.40
2017-09-29T13:41:58.401Z,5.80
2017-09-29T13:44:26.117Z,6.37
2017-09-29T13:46:54.048Z,6.93
2017-09-29T13:49:21.571Z,5.53
2017-09-29T13:51:49.182Z,6.90
2017-09-29T13:54:16.772Z,5.73
2017-09-29T13:56:45.880Z,4.50
2017-09-29T13:59:13.546Z,5.60
2017-09-29T14:01:41.136Z,4.77
2017-09-29T14:04:08.987Z,4.67
2017-09-29T14:06:36.665Z,4.40
2017-09-29T14:09:04.324Z,4.90
2017-09-29T14:11:32.566Z,4.53
2017-09-29T14:14:01.074Z,4.23
2017-09-29T14:16:30.390Z,4.00
2017-09-29T14:18:59.938Z,4.40
2017-09-29T14:21:28.442Z,4.03
2017-09-29T14:23:55.985Z,4.57
2017-09-29T14:26:23.516Z,4.50
2017-09-29T14:28:51.136Z,3.83
2017-09-29T14:31:18.832Z,4.10
2017-09-29T14:33:46.429Z,4.23
2017-09-29T14:36:14.037Z,4.13
2017-09-29T14:38:41.587Z,3.80
2017-09-29T14:41:09.130Z,3.87
2017-09-29T14:43:36.808Z,3.60
2017-09-29T14:46:04.361Z,4.27
2017-09-29T14:48:31.909Z,3.60
2017-09-29T14:50:59.480Z,3.60
2017-09-29T14:53:27.929Z,4.33
2017-09-29T14:55:55.510Z,4.13
2017-09-29T14:58:23.015Z,4.50
2017-09-29T15:00:50.549Z,4.70
2017-09-29T15:03:18.046Z,3.83
2017-09-29T15:05:45.538Z,4.60
2017-09-29T15:08:15.014Z,3.57
2017-09-29T15:10:42.484Z,3.77
2017-09-29T15:13:10.001Z,3.97
2017-09-29T15:15:37.474Z,3.90
2017-09-29T15:18:05.361Z,3.53
2017-09-29T15:20:32.881Z,3.70
2017-09-29T15:23:00.358Z,4.20
2017-09-29T15:25:28.281Z,3.30
2017-09-29T15:27:55.760Z,3.50
2017-09-29T15:30:25.219Z,3.90
2017-09-29T15:32:52.726Z,3.97
2017-09-29T15:35:20.602Z,3.90
2017-09-29T15:37:48.502Z,2.87
2017-09-29T15:40:15.997Z,3.43
2017-09-29T15:42:43.490Z,3.57
2017-09-29T15:45:11.374Z,2.90
2017-09-29T15:47:40.865Z,3.47
2017-09-29T15:50:08.342Z,3.27
2017-09-29T15:52:37.783Z,3.43
2017-09-29T15:55:06.391Z,3.40
2017-09-29T15:57:33.919Z,4.10
2017-09-29T16:00:01.444Z,3.90
2017-09-29T16:02:28.916Z,4.00
2017-09-29T16:04:56.441Z,4.20
2017-09-29T16:07:24.720Z,4.50
2017-09-29T16:09:52.213Z,4.27
2017-09-29T16:12:19.698Z,4.40
2017-09-29T16:14:47.972Z,4.67
2017-09-29T16:17:15.454Z,3.90
2017-09-29T16:19:42.935Z,4.17
2017-09-29T16:22:10.442Z,6.10
2017-09-29T16:24:38.717Z,4.50
2017-09-29T16:27:07.188Z,4.80
2017-09-29T16:29:34.770Z,5.20
2017-09-29T16:32:02.665Z,5.00
2017-09-29T16:34:30.162Z,4.57
2017-09-29T16:36:57.653Z,4.77
2017-09-29T16:39:26.389Z,5.40
2017-09-29T16:41:53.861Z,5.20
2017-09-29T16:44:21.358Z,5.20
2017-09-29T16:46:49.229Z,4.90
2017-09-29T16:49:17.130Z,4.67
2017-09-29T16:51:45.567Z,4.47
2017-09-29T16:54:13.471Z,4.63
2017-09-29T16:56:41.013Z,5.10
2017-09-29T16:59:08.514Z,5.17
2017-09-29T17:01:37.667Z,4.73
2017-09-29T17:04:05.191Z,4.53
2017-09-29T17:06:32.710Z,5.20
2017-09-29T17:09:00.208Z,4.77
2017-09-29T17:11:30.479Z,5.63
2017-09-29T17:13:59.966Z,5.63
2017-09-29T17:16:27.447Z,5.47
2017-09-29T17:18:54.966Z,4.27
2017-09-29T17:21:22.849Z,4.67
2017-09-29T17:23:51.673Z,4.83
2017-09-29T17:26:19.693Z,4.70
2017-09-29T17:28:48.290Z,5.27
2017-09-29T17:31:15.802Z,5.23
2017-09-29T17:33:43.306Z,4.70
2017-09-29T17:36:10.796Z,4.20
2017-09-29T17:38:38.294Z,4.40
2017-09-29T17:41:06.172Z,4.50
2017-09-29T17:43:35.170Z,4.60
2017-09-29T17:46:02.663Z,4.60
2017-09-29T17:48:30.151Z,5.13
2017-09-29T17:50:57.637Z,5.03
2017-09-29T17:53:26.098Z,5.17
2017-09-29T17:55:58.047Z,4.93
2017-09-29T17:58:28.458Z,5.03
2017-09-29T18:00:56.075Z,5.23
2017-09-29T18:03:23.579Z,5.37
2017-09-29T18:05:51.783Z,5.73
2017-09-29T18:08:22.365Z,5.13
2017-09-29T18:10:51.728Z,5.63
2017-09-29T18:13:21.081Z,7.70
2017-09-29T18:15:48.575Z,6.63
2017-09-29T18:18:16.502Z,6.37
2017-09-29T18:20:43.993Z,5.60
2017-09-29T18:23:13.520Z,4.93
2017-09-29T18:28:47.837Z,5.20
2017-09-29T18:31:16.385Z,6.70
2017-09-29T18:33:44.909Z,6.23
2017-09-29T18:36:18.692Z,6.13
2017-09-29T19:14:23.339Z,6.20
2017-09-29T19:16:54.542Z,7.23
2017-09-29T19:19:24.673Z,7.73
2017-09-29T19:21:52.388Z,7.60
2017-09-29T19:24:20.109Z,7.83
2017-09-29T19:26:48.498Z,9.10
2017-09-29T19:29:16.111Z,8.47
2017-09-29T19:31:58.471Z,7.47
2017-09-29T19:34:29.316Z,6.50
2017-09-29T19:41:32.507Z,5.70
2017-09-29T19:44:00.131Z,7.20
2017-09-29T19:46:35.079Z,7.07
2017-09-29T19:49:04.730Z,6.80
2017-09-29T19:51:50.541Z,6.83
2017-09-29T19:54:23.480Z,5.90
2017-09-29T19:56:58.303Z,7.90
2017-09-29T19:59:31.540Z,7.27
2017-09-29T20:01:59.263Z,5.23
2017-09-29T20:04:26.845Z,6.30
2017-09-29T20:06:54.444Z,6.23
2017-09-29T20:09:23.453Z,6.60
2017-09-29T20:11:51.066Z,6.73
2017-09-29T20:14:19.584Z,7.10
2017-09-29T20:16:47.134Z,9.30
2017-09-29T20:19:14.729Z,10.40
2017-09-29T20:21:43.317Z,9.33
2017-09-29T20:24:11.330Z,8.80
2017-09-29T20:26:40.502Z,10.20
2017-09-29T20:29:08.248Z,8.70
2017-09-29T20:31:35.910Z,8.10
2017-09-29T20:34:03.541Z,7.60
2017-09-29T20:36:31.118Z,7.80
2017-09-29T20:38:59.505Z,8.27
2017-09-29T20:41:27.987Z,7.43
2017-09-29T20:43:55.644Z,7.90
2017-09-29T20:46:26.817Z,7.50
2017-09-29T20:48:54.675Z,8.17
2017-09-29T20:51:22.231Z,7.40
2017-09-29T20:53:51.105Z,8.83
2017-09-29T20:56:19.803Z,8.97
2017-09-29T20:58:47.372Z,8.50
2017-09-29T21:01:15.749Z,8.53
2017-09-29T21:03:43.388Z,9.47
2017-09-29T21:06:11.369Z,10.13
2017-09-29T21:08:39.661Z,12.17
2017-09-29T21:11:07.301Z,15.50
2017-09-29T21:13:34.916Z,14.53
2017-09-29T21:16:02.750Z,15.47
2017-09-29T21:18:30.691Z,14.60
2017-09-29T21:20:58.680Z,14.50
2017-09-29T21:23:27.375Z,12.97
2017-09-29T21:25:55.385Z,13.60
2017-09-29T21:28:24.734Z,13.07
2017-09-29T21:30:52.836Z,14.30
2017-09-29T21:33:22.425Z,14.93
2017-09-29T21:35:49.986Z,13.80
2017-09-29T21:38:17.935Z,14.53
2017-09-29T21:40:45.866Z,13.87
2017-09-29T21:43:13.472Z,14.10
2017-09-29T21:45:42.119Z,13.50
2017-09-29T21:48:09.745Z,13.80
2017-09-29T21:50:37.380Z,13.73
2017-09-29T21:53:05.001Z,15.20
2017-09-29T21:55:33.897Z,12.17
2017-09-29T21:58:01.495Z,14.43
2017-09-29T22:00:29.196Z,16.40
2017-09-29T22:02:56.854Z,15.40
2017-09-29T22:05:24.487Z,15.47
2017-09-29T22:07:54.225Z,14.50
2017-09-29T22:10:22.060Z,13.53
2017-09-29T22:12:49.649Z,15.80
2017-09-29T22:15:18.131Z,17.63
2017-09-29T22:17:45.737Z,17.10
2017-09-29T22:20:14.566Z,14.80
2017-09-29T22:22:42.106Z,16.70
2017-09-29T22:25:11.470Z,17.33
2017-09-29T22:27:39.122Z,16.73
2017-09-29T22:30:06.626Z,17.60
2017-09-29T22:32:34.527Z,17.80
2017-09-29T22:35:02.966Z,17.57
2017-09-29T22:37:30.875Z,19.23
2017-09-29T22:39:59.310Z,27.07
2017-09-29T22:42:27.206Z,25.40
2017-09-29T22:44:54.693Z,20.70
2017-09-29T22:47:22.202Z,21.20
2017-09-29T22:49:50.643Z,21.50
2017-09-29T22:52:18.156Z,20.50
2017-09-29T22:54:45.646Z,19.33
2017-09-29T22:57:13.150Z,20.57
2017-09-29T22:59:41.050Z,20.93
2017-09-29T23:02:08.565Z,20.80
2017-09-29T23:04:36.458Z,20.23
2017-09-29T23:07:04.921Z,21.73
2017-09-29T23:09:32.814Z,24.40
2017-09-29T23:12:00.326Z,21.07
2017-09-29T23:14:27.823Z,20.50
2017-09-29T23:16:55.337Z,18.50
2017-09-29T23:19:22.820Z,17.43
2017-09-29T23:21:50.717Z,17.80
2017-09-29T23:24:18.214Z,17.00
2017-09-29T23:26:45.714Z,15.80
2017-09-29T23:29:13.269Z,15.70
2017-09-29T23:31:40.778Z,16.80
2017-09-29T23:34:08.266Z,20.83
2017-09-29T23:36:38.110Z,18.77
2017-09-29T23:39:05.598Z,18.63
2017-09-29T23:41:35.063Z,18.93
2017-09-29T23:44:02.554Z,19.67
2017-09-29T23:46:30.058Z,23.43
2017-09-29T23:48:57.938Z,21.87
2017-09-29T23:51:25.457Z,21.23
2017-09-29T23:53:52.944Z,28.60
2017-09-29T23:56:20.874Z,32.00
2017-09-29T23:58:48.376Z,32.40
